Time;durP1;ratioP1;P1;durP2;ratioP2;P2;SDS_P1;SDS_P2;PMS_P1;PMS_P2;Temp;Humidity;BMP_temperature;BMP_pressure;BME280_temperature;BME280_humidity;BME280_pressure;Samples;Min_cycle;Max_cycle;Signal;HPM_P1;HPM_P2
2022/12/04 00:01:11;;;;;;;45.63;27.10;;;0.90;99.90;;;;;;4913169;29;20205;-70
2022/12/04 00:03:38;;;;;;;48.40;28.53;;;0.90;99.90;;;;;;4913306;29;20698;-73
2022/12/04 00:06:10;;;;;;;47.90;27.60;;;0.90;99.90;;;;;;4913030;29;20237;-72
2022/12/04 00:08:37;;;;;;;48.70;27.87;;;1.00;99.90;;;;;;4913105;29;20519;-71
2022/12/04 00:11:04;;;;;;;47.87;27.73;;;0.90;99.90;;;;;;4913256;29;20296;-72
2022/12/04 00:13:31;;;;;;;49.43;28.90;;;1.00;99.90;;;;;;4913279;29;20560;-72
2022/12/04 00:15:59;;;;;;;46.93;26.70;;;0.90;99.90;;;;;;4913002;29;20255;-72
2022/12/04 00:18:26;;;;;;;47.30;26.60;;;0.90;99.90;;;;;;4912811;29;20225;-72
2022/12/04 00:20:53;;;;;;;47.77;27.53;;;0.90;99.90;;;;;;4913010;29;20205;-71
2022/12/04 00:23:22;;;;;;;51.37;28.10;;;0.90;99.90;;;;;;4913229;29;20303;-73
2022/12/04 00:25:49;;;;;;;46.70;26.63;;;0.90;99.90;;;;;;4911697;29;20219;-72
2022/12/04 00:28:16;;;;;;;48.17;27.57;;;0.90;99.90;;;;;;4912521;29;20316;-71
2022/12/04 00:30:44;;;;;;;45.90;26.63;;;0.90;99.90;;;;;;4911595;29;20237;-72
2022/12/04 00:33:11;;;;;;;45.30;27.30;;;0.90;99.90;;;;;;4912323;29;20575;-72
2022/12/04 00:35:38;;;;;;;51.30;28.13;;;1.00;99.90;;;;;;4912661;29;20268;-71
2022/12/04 00:38:04;;;;;;;45.70;26.63;;;0.90;99.90;;;;;;4912073;29;20213;-70
2022/12/04 00:40:33;;;;;;;49.37;27.63;;;0.90;99.90;;;;;;4912070;29;20284;-71
2022/12/04 00:43:00;;;;;;;48.40;27.77;;;0.90;99.90;;;;;;4912247;29;20259;-71
2022/12/04 00:45:26;;;;;;;44.47;27.10;;;0.90;99.90;;;;;;4911108;29;20307;-71
2022/12/04 00:47:53;;;;;;;50.30;27.67;;;0.90;99.90;;;;;;4912290;29;20213;-71
2022/12/04 00:50:20;;;;;;;46.53;27.40;;;0.90;99.90;;;;;;4912171;29;20582;-71
2022/12/04 00:52:48;;;;;;;49.00;27.53;;;0.90;99.90;;;;;;4912087;29;20215;-71
2022/12/04 00:55:15;;;;;;;46.40;27.23;;;0.90;99.90;;;;;;4911651;29;20236;-71
2022/12/04 00:57:43;;;;;;;45.60;26.13;;;0.90;99.90;;;;;;4912103;29;20679;-71
2022/12/04 01:00:10;;;;;;;47.67;28.33;;;0.90;99.90;;;;;;4911788;29;20242;-71
2022/12/04 01:02:37;;;;;;;51.73;28.13;;;0.90;99.90;;;;;;4911694;29;20211;-73
2022/12/04 01:05:05;;;;;;;47.37;28.83;;;0.90;99.90;;;;;;4911773;29;20311;-73
2022/12/04 01:07:31;;;;;;;50.07;27.97;;;0.90;99.90;;;;;;4911585;29;20285;-73
2022/12/04 01:09:58;;;;;;;47.00;27.07;;;0.90;99.90;;;;;;4911689;29;20751;-74
2022/12/04 01:12:25;;;;;;;45.90;26.70;;;0.90;99.90;;;;;;4908390;29;20273;-73
2022/12/04 01:14:53;;;;;;;48.90;27.73;;;0.90;99.90;;;;;;4893273;29;20320;-73
2022/12/04 01:17:20;;;;;;;49.97;27.10;;;0.90;99.90;;;;;;4893020;29;20216;-72
2022/12/04 01:19:47;;;;;;;49.00;27.90;;;0.90;99.90;;;;;;4896752;29;20340;-72
2022/12/04 01:22:14;;;;;;;49.87;27.50;;;0.90;99.90;;;;;;4911936;29;20209;-72
2022/12/04 01:24:41;;;;;;;48.33;26.73;;;0.90;99.90;;;;;;4911505;29;20248;-72
2022/12/04 01:27:08;;;;;;;51.63;28.27;;;0.90;99.90;;;;;;4902889;29;20296;-72
2022/12/04 01:29:35;;;;;;;50.17;28.33;;;0.90;99.90;;;;;;4892592;29;20744;-72
2022/12/04 01:32:03;;;;;;;46.50;27.47;;;0.90;99.90;;;;;;4892699;29;20676;-72
2022/12/04 01:34:30;;;;;;;49.30;27.67;;;0.90;99.90;;;;;;4892934;29;20312;-72
2022/12/04 01:36:57;;;;;;;50.87;27.67;;;0.90;99.90;;;;;;4892811;29;20240;-72
2022/12/04 01:39:24;;;;;;;53.67;28.77;;;0.90;99.90;;;;;;4904663;29;20240;-72
2022/12/04 01:41:51;;;;;;;51.97;27.93;;;0.90;99.90;;;;;;4907794;29;20219;-72
2022/12/04 01:44:20;;;;;;;49.20;27.27;;;0.90;99.90;;;;;;4911762;29;20205;-72
2022/12/04 01:46:50;;;;;;;51.30;28.37;;;1.00;99.90;;;;;;4911247;29;20308;-72
2022/12/04 01:49:25;;;;;;;46.10;27.83;;;0.90;99.90;;;;;;4911440;29;20312;-72
2022/12/04 01:51:56;;;;;;;55.50;28.23;;;0.90;99.90;;;;;;4898930;29;20291;-72
2022/12/04 01:54:27;;;;;;;51.50;29.00;;;0.90;99.90;;;;;;4910842;29;20616;-72
2022/12/04 01:56:59;;;;;;;48.17;27.57;;;0.90;99.90;;;;;;4911091;29;20296;-72
2022/12/04 01:59:31;;;;;;;54.77;29.67;;;0.90;99.90;;;;;;4911283;29;20586;-72
2022/12/04 02:02:03;;;;;;;53.67;29.60;;;0.80;99.90;;;;;;4911413;29;20634;-72
2022/12/04 02:04:34;;;;;;;53.73;29.53;;;0.80;99.90;;;;;;4911265;29;20293;-72
2022/12/04 02:07:01;;;;;;;55.37;29.17;;;0.80;99.90;;;;;;4910841;29;20343;-72
2022/12/04 02:09:29;;;;;;;53.97;29.43;;;0.80;99.90;;;;;;4910970;29;20301;-72
2022/12/04 02:12:03;;;;;;;57.23;30.77;;;0.80;99.90;;;;;;4910819;29;20887;-72
2022/12/04 02:14:36;;;;;;;59.50;29.90;;;0.90;99.90;;;;;;4911068;29;20216;-72
2022/12/04 02:17:11;;;;;;;60.77;30.50;;;0.90;99.90;;;;;;4910673;29;20932;-72
2022/12/04 02:20:10;;;;;;;56.80;30.57;;;0.80;99.90;;;;;;4911039;29;20256;-72
2022/12/04 02:22:59;;;;;;;57.10;30.90;;;0.80;99.90;;;;;;4902515;29;20292;-72
2022/12/04 02:25:35;;;;;;;60.23;30.33;;;0.80;99.90;;;;;;4910709;29;20197;-73
2022/12/04 02:28:09;;;;;;;59.90;30.10;;;0.80;99.90;;;;;;4910946;29;20255;-71
2022/12/04 02:30:39;;;;;;;58.53;31.77;;;0.80;99.90;;;;;;4910985;29;20272;-72
2022/12/04 02:33:15;;;;;;;56.33;30.23;;;0.80;99.90;;;;;;4910959;29;21159;-74
2022/12/04 02:35:46;;;;;;;57.93;30.90;;;0.80;99.90;;;;;;4910775;29;20276;-72
2022/12/04 02:38:19;;;;;;;58.03;30.87;;;0.90;99.90;;;;;;4910687;29;20743;-73
2022/12/04 02:40:52;;;;;;;54.40;29.87;;;0.80;99.90;;;;;;4910510;29;20260;-72
2022/12/04 02:43:26;;;;;;;57.93;31.37;;;0.90;99.90;;;;;;4911015;29;20236;-72
2022/12/04 02:45:59;;;;;;;61.23;32.17;;;0.90;99.90;;;;;;4911035;29;20201;-71
2022/12/04 02:48:29;;;;;;;61.70;31.23;;;0.90;99.90;;;;;;4910523;29;20229;-74
2022/12/04 02:50:58;;;;;;;61.53;30.67;;;0.90;99.90;;;;;;4910266;29;20739;-73
2022/12/04 02:53:32;;;;;;;59.43;31.60;;;0.90;99.90;;;;;;4910481;29;20300;-73
2022/12/04 02:56:03;;;;;;;57.63;31.60;;;0.90;99.90;;;;;;4910102;29;20197;-73
2022/12/04 02:58:35;;;;;;;60.10;30.73;;;0.90;99.90;;;;;;4910549;29;20208;-73
2022/12/04 03:01:18;;;;;;;56.70;30.30;;;0.90;99.90;;;;;;4910856;29;20209;-73
2022/12/04 03:03:49;;;;;;;56.57;31.37;;;0.90;99.90;;;;;;4892007;29;20198;-74
2022/12/04 03:06:19;;;;;;;58.33;30.33;;;0.80;99.90;;;;;;4905438;29;20232;-74
2022/12/04 03:08:48;;;;;;;56.07;30.73;;;0.90;99.90;;;;;;4911455;29;20336;-72
2022/12/04 03:11:15;;;;;;;55.60;29.87;;;0.90;99.90;;;;;;4913757;29;20354;-74
2022/12/04 03:13:47;;;;;;;59.37;30.37;;;0.90;99.90;;;;;;4914126;29;20300;-72
2022/12/04 03:16:18;;;;;;;58.57;30.77;;;0.90;99.90;;;;;;4913911;29;20728;-72
2022/12/04 03:18:50;;;;;;;61.03;30.83;;;0.80;99.90;;;;;;4913606;29;20276;-76
2022/12/04 03:21:22;;;;;;;56.30;31.57;;;0.80;99.90;;;;;;4913863;29;20251;-73
2022/12/04 03:23:54;;;;;;;58.90;30.03;;;0.80;99.90;;;;;;4913576;29;20197;-72
2022/12/04 03:26:26;;;;;;;62.90;31.63;;;0.80;99.90;;;;;;4913698;29;20208;-71
2022/12/04 03:28:59;;;;;;;60.67;32.17;;;0.80;99.90;;;;;;4913616;29;20284;-71
2022/12/04 03:31:39;;;;;;;62.50;31.53;;;0.80;99.90;;;;;;4913740;29;20267;-71
2022/12/04 03:34:08;;;;;;;55.50;30.70;;;0.80;99.90;;;;;;4913441;29;20212;-71
2022/12/04 03:36:39;;;;;;;66.23;32.00;;;0.90;99.90;;;;;;4913633;29;20296;-71
2022/12/04 03:39:20;;;;;;;63.37;32.40;;;0.80;99.90;;;;;;4913392;29;20284;-71
2022/12/04 03:41:55;;;;;;;61.40;30.43;;;0.90;99.90;;;;;;4913430;29;20979;-71
2022/12/04 03:44:27;;;;;;;59.57;31.70;;;0.90;99.90;;;;;;4913305;29;20292;-71
2022/12/04 03:46:58;;;;;;;66.27;32.93;;;0.90;99.90;;;;;;4913402;29;20201;-71
2022/12/04 03:49:31;;;;;;;69.03;32.10;;;0.90;99.90;;;;;;4913317;29;20662;-71
2022/12/04 03:52:03;;;;;;;65.23;32.37;;;0.90;99.90;;;;;;4913140;29;20287;-70
2022/12/04 03:54:33;;;;;;;65.70;31.10;;;0.90;99.90;;;;;;4913206;29;20232;-71
2022/12/04 03:57:06;;;;;;;66.07;31.23;;;0.90;99.90;;;;;;4913069;29;20232;-71
2022/12/04 03:59:39;;;;;;;63.17;32.00;;;0.90;99.90;;;;;;4913108;29;20225;-71
2022/12/04 04:02:13;;;;;;;65.20;32.13;;;0.90;99.90;;;;;;4912799;29;20560;-71
2022/12/04 04:04:44;;;;;;;61.73;31.57;;;0.90;99.90;;;;;;4913057;29;20232;-71
2022/12/04 04:07:17;;;;;;;60.97;31.67;;;0.90;99.90;;;;;;4912643;29;20287;-71
2022/12/04 04:09:47;;;;;;;61.00;30.87;;;0.90;99.90;;;;;;4912380;29;20194;-71
2022/12/04 04:12:19;;;;;;;66.40;32.03;;;0.90;99.90;;;;;;4912997;29;20322;-71
2022/12/04 04:26:06;;;;;;;58.00;30.23;;;0.90;99.90;;;;;;4912060;29;20203;-71
2022/12/04 04:28:36;;;;;;;57.97;29.63;;;0.90;99.90;;;;;;4912667;29;20318;-70
2022/12/04 04:31:11;;;;;;;62.40;30.30;;;0.90;99.90;;;;;;4904501;29;20226;-71
2022/12/04 04:33:47;;;;;;;60.73;29.57;;;0.90;99.90;;;;;;4893587;29;20229;-71
2022/12/04 04:36:20;;;;;;;57.53;30.57;;;0.90;99.90;;;;;;4893555;29;20226;-71
2022/12/04 04:38:55;;;;;;;55.57;29.33;;;0.90;99.90;;;;;;4901674;29;20668;-71
2022/12/04 04:41:30;;;;;;;58.83;30.00;;;0.90;99.90;;;;;;4912314;29;20295;-71
2022/12/04 04:44:04;;;;;;;56.13;29.87;;;0.90;99.90;;;;;;4912124;29;20196;-71
2022/12/04 04:46:36;;;;;;;60.07;30.27;;;0.90;99.90;;;;;;4912088;29;20300;-71
2022/12/04 04:49:06;;;;;;;60.17;29.90;;;0.90;99.90;;;;;;4912164;29;20193;-71
2022/12/04 04:51:34;;;;;;;52.17;28.97;;;0.90;99.90;;;;;;4894608;29;20300;-71
2022/12/04 04:54:06;;;;;;;61.80;31.30;;;0.90;99.90;;;;;;4910240;29;20308;-77
2022/12/04 04:56:40;;;;;;;58.80;29.83;;;0.90;99.90;;;;;;4912125;29;20288;-73
2022/12/04 04:59:07;;;;;;;54.87;29.67;;;1.00;99.90;;;;;;4895932;29;20730;-73
2022/12/04 05:01:36;;;;;;;53.50;29.50;;;1.00;99.90;;;;;;4903568;29;20689;-74
2022/12/04 05:04:03;;;;;;;58.30;29.40;;;1.00;99.90;;;;;;4911642;29;20272;-73
2022/12/04 05:06:30;;;;;;;60.93;31.57;;;1.00;99.90;;;;;;4912183;29;20539;-74
2022/12/04 05:08:57;;;;;;;55.73;29.50;;;1.00;99.90;;;;;;4911566;29;20723;-73
2022/12/04 05:11:24;;;;;;;52.60;29.37;;;1.00;99.90;;;;;;4899651;29;20744;-73
2022/12/04 05:13:51;;;;;;;56.83;30.33;;;1.00;99.90;;;;;;4893144;29;20216;-73
2022/12/04 05:16:18;;;;;;;57.63;29.67;;;1.00;99.90;;;;;;4893236;29;20268;-73
2022/12/04 05:21:27;;;;;;;61.17;29.43;;;1.00;99.90;;;;;;4900692;29;20229;-74
2022/12/04 05:23:54;;;;;;;57.70;30.53;;;1.00;99.90;;;;;;4911662;29;20248;-73
2022/12/04 05:26:21;;;;;;;54.97;29.60;;;1.00;99.90;;;;;;4911938;29;20227;-74
2022/12/04 05:28:48;;;;;;;54.37;29.33;;;1.00;99.90;;;;;;4911781;29;20243;-73
2022/12/04 05:31:15;;;;;;;60.03;28.47;;;1.00;99.90;;;;;;4911606;29;20233;-74
2022/12/04 05:33:41;;;;;;;53.47;29.03;;;1.00;99.90;;;;;;4911678;29;20252;-73
2022/12/04 05:36:12;;;;;;;54.10;28.57;;;1.00;99.90;;;;;;4911514;29;20240;-74
2022/12/04 05:38:38;;;;;;;52.60;29.07;;;1.00;99.90;;;;;;4900555;29;20198;-76
2022/12/04 05:41:07;;;;;;;50.57;28.40;;;1.00;99.90;;;;;;4892475;29;20608;-75
2022/12/04 05:43:34;;;;;;;53.73;29.40;;;1.00;99.90;;;;;;4892702;29;20706;-75
2022/12/04 05:46:01;;;;;;;56.67;29.80;;;1.00;99.90;;;;;;4892856;29;20336;-73
2022/12/04 05:48:28;;;;;;;49.83;28.37;;;1.00;99.90;;;;;;4905859;29;20587;-74
2022/12/04 05:50:55;;;;;;;53.83;29.73;;;1.00;99.90;;;;;;4910991;29;20304;-73
2022/12/04 05:53:24;;;;;;;55.50;28.63;;;1.10;99.90;;;;;;4911006;29;20197;-72
2022/12/04 05:55:55;;;;;;;53.87;29.17;;;1.10;99.90;;;;;;4910888;29;20216;-73
2022/12/04 05:58:22;;;;;;;55.23;29.60;;;1.10;99.90;;;;;;4911553;29;21112;-73
2022/12/04 06:00:49;;;;;;;51.83;27.87;;;1.10;99.90;;;;;;4910731;29;20614;-72
2022/12/04 06:03:16;;;;;;;53.90;28.73;;;1.10;99.90;;;;;;4911060;29;20243;-73
2022/12/04 06:05:42;;;;;;;55.30;29.63;;;1.10;99.90;;;;;;4911175;29;20217;-73
2022/12/04 06:08:09;;;;;;;56.77;30.67;;;1.10;99.90;;;;;;4910696;29;20245;-73
2022/12/04 06:10:38;;;;;;;54.33;27.13;;;1.00;99.90;;;;;;4911071;29;20312;-72
2022/12/04 06:13:05;;;;;;;55.70;28.57;;;1.10;99.90;;;;;;4910546;29;20555;-72
2022/12/04 06:15:36;;;;;;;55.73;29.07;;;1.00;99.90;;;;;;4911138;29;20234;-72
2022/12/04 06:18:03;;;;;;;53.37;29.57;;;1.10;99.90;;;;;;4911097;29;20213;-72
2022/12/04 06:20:29;;;;;;;51.03;28.43;;;1.10;99.90;;;;;;4910576;29;20689;-72
2022/12/04 06:22:56;;;;;;;56.13;29.37;;;1.00;99.90;;;;;;4910999;29;20278;-72
2022/12/04 06:25:23;;;;;;;58.27;29.47;;;1.10;99.90;;;;;;4891642;29;20301;-72
2022/12/04 06:27:52;;;;;;;50.33;28.17;;;1.10;99.90;;;;;;4892345;29;20305;-72
2022/12/04 06:30:18;;;;;;;56.43;29.20;;;1.10;99.90;;;;;;4904100;29;20909;-71
2022/12/04 06:32:45;;;;;;;55.03;28.90;;;1.10;99.90;;;;;;4910719;29;20240;-73
2022/12/04 06:35:12;;;;;;;54.57;28.00;;;1.10;99.90;;;;;;4910617;29;20775;-73
2022/12/04 06:37:39;;;;;;;53.60;28.97;;;1.10;99.90;;;;;;4910712;29;20815;-74
2022/12/04 06:40:07;;;;;;;51.57;27.87;;;1.10;99.90;;;;;;4910281;29;20264;-73
2022/12/04 06:42:36;;;;;;;51.40;28.87;;;1.10;99.90;;;;;;4910792;29;20244;-74
2022/12/04 06:45:05;;;;;;;54.07;28.67;;;1.10;99.90;;;;;;4913441;29;20251;-72
2022/12/04 06:47:34;;;;;;;51.30;28.77;;;1.10;99.90;;;;;;4914101;29;20212;-71
2022/12/04 06:50:01;;;;;;;57.87;28.87;;;1.10;99.90;;;;;;4912282;29;20240;-72
2022/12/04 06:52:28;;;;;;;55.37;29.03;;;1.10;99.90;;;;;;4914480;29;20252;-71
2022/12/04 06:54:55;;;;;;;55.93;29.37;;;1.10;99.90;;;;;;4914099;29;20248;-72
2022/12/04 06:57:21;;;;;;;52.67;28.50;;;1.10;99.90;;;;;;4914227;29;20291;-72
2022/12/04 06:59:48;;;;;;;55.53;28.77;;;1.10;99.90;;;;;;4914290;29;20233;-72
2022/12/04 07:02:16;;;;;;;58.53;29.17;;;1.10;99.90;;;;;;4913890;29;20205;-73
2022/12/04 07:04:44;;;;;;;55.47;27.93;;;1.10;99.90;;;;;;4913772;29;20311;-72
2022/12/04 07:07:12;;;;;;;57.57;29.10;;;1.10;99.90;;;;;;4913737;29;20773;-71
2022/12/04 07:09:39;;;;;;;57.03;28.57;;;1.10;99.90;;;;;;4914013;29;20219;-72
2022/12/04 07:12:06;;;;;;;54.53;28.50;;;1.10;99.90;;;;;;4913990;29;20303;-73
2022/12/04 07:14:33;;;;;;;53.53;28.07;;;1.10;99.90;;;;;;4913937;29;20219;-72
2022/12/04 07:17:00;;;;;;;54.00;28.73;;;1.10;99.90;;;;;;4914046;29;20296;-73
2022/12/04 07:19:28;;;;;;;51.33;28.13;;;1.10;99.90;;;;;;4913511;29;20749;-73
2022/12/04 07:21:55;;;;;;;56.90;28.77;;;1.10;99.90;;;;;;4913975;29;20327;-73
2022/12/04 07:24:22;;;;;;;56.20;29.90;;;1.10;99.90;;;;;;4913681;29;20312;-71
2022/12/04 07:26:49;;;;;;;53.07;28.27;;;1.20;99.90;;;;;;4913584;29;20265;-72
2022/12/04 07:29:15;;;;;;;50.07;26.97;;;1.10;99.90;;;;;;4913597;29;20235;-72
2022/12/04 07:31:43;;;;;;;56.60;28.57;;;1.20;99.90;;;;;;4913686;29;20711;-72
2022/12/04 07:34:10;;;;;;;52.97;28.23;;;1.20;99.90;;;;;;4913681;29;20238;-72
2022/12/04 07:36:39;;;;;;;56.80;29.27;;;1.20;99.90;;;;;;4902468;29;20321;-71
2022/12/04 07:39:06;;;;;;;50.67;28.00;;;1.20;99.90;;;;;;4894701;29;20222;-71
2022/12/04 07:41:33;;;;;;;58.00;28.67;;;1.20;99.90;;;;;;4898824;29;20239;-71
2022/12/04 07:44:00;;;;;;;52.93;28.87;;;1.30;99.90;;;;;;4913569;29;20300;-71
2022/12/04 07:46:28;;;;;;;54.33;28.13;;;1.20;99.90;;;;;;4913826;29;20260;-71
2022/12/04 07:48:58;;;;;;;53.80;28.63;;;1.30;99.90;;;;;;4913490;29;20240;-71
2022/12/04 07:51:26;;;;;;;54.10;26.93;;;1.30;99.90;;;;;;4913751;29;20213;-71
2022/12/04 07:53:56;;;;;;;52.57;28.20;;;1.30;99.90;;;;;;4913160;29;20328;-71
2022/12/04 07:56:23;;;;;;;53.07;28.40;;;1.30;99.90;;;;;;4913667;29;20538;-72
2022/12/04 07:58:50;;;;;;;52.77;28.87;;;1.30;99.90;;;;;;4912907;29;20248;-72
2022/12/04 08:01:20;;;;;;;51.37;28.63;;;1.30;99.90;;;;;;4913363;29;20328;-73
2022/12/04 08:03:49;;;;;;;51.23;28.00;;;1.30;99.90;;;;;;4913076;29;20888;-72
2022/12/04 08:06:17;;;;;;;50.70;27.40;;;1.30;99.90;;;;;;4913166;29;20291;-73
2022/12/04 08:08:44;;;;;;;48.87;26.63;;;1.30;99.90;;;;;;4912755;29;20272;-76
2022/12/04 08:11:15;;;;;;;52.37;28.60;;;1.30;99.90;;;;;;4912740;29;20857;-77
2022/12/04 08:13:42;;;;;;;57.03;29.60;;;1.30;99.90;;;;;;4913127;29;20295;-73
2022/12/04 08:16:10;;;;;;;52.17;27.63;;;1.30;99.90;;;;;;4913236;29;20775;-73
2022/12/04 08:18:38;;;;;;;50.77;28.00;;;1.30;99.90;;;;;;4912961;29;20224;-72
2022/12/04 08:21:06;;;;;;;50.63;26.20;;;1.30;99.90;;;;;;4912513;29;20327;-72
2022/12/04 08:23:34;;;;;;;52.63;28.40;;;1.40;99.90;;;;;;4912865;29;20328;-73
2022/12/04 08:26:01;;;;;;;49.53;27.10;;;1.40;99.90;;;;;;4903139;29;20571;-72
2022/12/04 08:28:30;;;;;;;52.07;27.77;;;1.30;99.90;;;;;;4893689;29;20749;-72
2022/12/04 08:31:03;;;;;;;50.40;26.53;;;1.30;99.90;;;;;;4909028;29;20614;-72
2022/12/04 08:33:30;;;;;;;50.30;26.83;;;1.30;99.90;;;;;;4912227;29;20229;-72
2022/12/04 08:35:57;;;;;;;53.40;28.50;;;1.30;99.90;;;;;;4912539;29;20312;-72
2022/12/04 08:38:24;;;;;;;50.20;27.97;;;1.40;99.90;;;;;;4912542;29;20307;-71
2022/12/04 08:40:51;;;;;;;56.17;28.67;;;1.30;99.90;;;;;;4912344;29;20272;-74
2022/12/04 08:43:18;;;;;;;46.90;27.30;;;1.40;99.90;;;;;;4912429;29;20213;-76
2022/12/04 08:45:55;;;;;;;60.90;28.87;;;1.40;99.90;;;;;;4912633;29;20256;-73
2022/12/04 08:48:21;;;;;;;51.70;27.47;;;1.40;99.90;;;;;;4912154;29;20280;-71
2022/12/04 08:50:48;;;;;;;51.03;27.03;;;1.40;99.90;;;;;;4912218;29;20243;-74
2022/12/04 08:53:15;;;;;;;50.87;27.17;;;1.40;99.90;;;;;;4912334;29;20661;-77
2022/12/04 08:55:45;;;;;;;51.03;27.07;;;1.40;99.90;;;;;;4912003;29;20644;-73
2022/12/04 08:58:13;;;;;;;54.17;28.03;;;1.40;99.90;;;;;;4912448;29;20223;-73
2022/12/04 09:00:40;;;;;;;54.37;27.40;;;1.40;99.90;;;;;;4912061;29;20225;-78
2022/12/04 09:03:11;;;;;;;50.00;27.63;;;1.40;99.90;;;;;;4912290;29;20205;-77
2022/12/04 09:05:38;;;;;;;46.93;25.87;;;1.40;99.90;;;;;;4911915;29;20245;-73
2022/12/04 09:08:05;;;;;;;51.93;27.37;;;1.40;99.90;;;;;;4911264;29;20783;-73
2022/12/04 09:10:34;;;;;;;55.33;27.43;;;1.40;99.90;;;;;;4912059;29;20256;-73
2022/12/04 09:13:01;;;;;;;53.27;27.67;;;1.40;99.90;;;;;;4911467;29;20693;-73
2022/12/04 09:15:29;;;;;;;53.63;28.10;;;1.40;99.90;;;;;;4912116;29;20204;-73
2022/12/04 09:17:58;;;;;;;52.67;27.73;;;1.40;99.90;;;;;;4911812;29;20291;-76
2022/12/04 09:20:27;;;;;;;53.80;28.30;;;1.50;99.90;;;;;;4911736;29;20244;-75
2022/12/04 09:22:53;;;;;;;50.87;27.60;;;1.50;99.90;;;;;;4911266;29;20603;-74
2022/12/04 09:25:20;;;;;;;49.37;27.00;;;1.50;99.90;;;;;;4911606;29;20235;-72
2022/12/04 09:27:47;;;;;;;50.10;27.20;;;1.50;99.90;;;;;;4911990;29;20295;-73
2022/12/04 09:30:14;;;;;;;55.33;27.23;;;1.50;99.90;;;;;;4911827;29;20260;-73
2022/12/04 09:32:41;;;;;;;53.13;27.87;;;1.50;99.90;;;;;;4911882;29;20300;-72
2022/12/04 09:35:09;;;;;;;51.37;27.07;;;1.50;99.90;;;;;;4911554;29;20296;-74
2022/12/04 09:37:37;;;;;;;49.87;27.17;;;1.50;99.90;;;;;;4910729;29;21060;-74
2022/12/04 09:40:05;;;;;;;51.87;26.63;;;1.50;99.90;;;;;;4909579;29;21057;-75
2022/12/04 09:42:42;;;;;;;48.83;25.73;;;1.50;99.90;;;;;;4909302;29;20339;-73
2022/12/04 09:45:12;;;;;;;52.50;26.67;;;1.50;99.90;;;;;;4909461;29;20264;-73
2022/12/04 09:47:43;;;;;;;49.53;27.03;;;1.50;99.90;;;;;;4909006;29;20280;-74
2022/12/04 09:50:16;;;;;;;53.17;27.10;;;1.60;99.90;;;;;;4908905;29;20213;-74
2022/12/04 09:52:50;;;;;;;50.13;26.47;;;1.60;99.90;;;;;;4909276;29;20688;-73
2022/12/04 09:55:23;;;;;;;48.13;25.73;;;1.60;99.90;;;;;;4903154;29;20687;-73
2022/12/04 09:57:54;;;;;;;50.00;26.83;;;1.60;99.90;;;;;;4899849;29;20609;-74
2022/12/04 10:00:21;;;;;;;47.90;25.87;;;1.60;99.90;;;;;;4903171;29;20284;-73
2022/12/04 10:02:53;;;;;;;47.77;25.63;;;1.60;99.90;;;;;;4899003;29;20247;-73
2022/12/04 10:05:30;;;;;;;48.17;26.30;;;1.60;99.90;;;;;;4908566;29;20673;-75
2022/12/04 10:08:06;;;;;;;48.27;25.73;;;1.60;99.90;;;;;;4906933;29;20322;-74
2022/12/04 10:10:39;;;;;;;50.23;27.43;;;1.70;99.90;;;;;;4900971;29;20315;-73
2022/12/04 10:13:17;;;;;;;47.93;26.00;;;1.60;99.90;;;;;;4908935;29;20256;-75
2022/12/04 10:15:53;;;;;;;51.40;26.43;;;1.70;99.90;;;;;;4910200;29;20232;-72
2022/12/04 10:18:35;;;;;;;49.20;26.67;;;1.70;99.90;;;;;;4911732;29;20203;-73
2022/12/04 10:21:37;;;;;;;55.00;26.53;;;1.70;99.90;;;;;;4912928;29;20224;-74
2022/12/04 10:24:23;;;;;;;48.10;25.20;;;1.70;99.90;;;;;;4912167;29;20211;-75
2022/12/04 10:26:54;;;;;;;44.33;24.83;;;1.70;99.90;;;;;;4912442;29;20377;-74
2022/12/04 10:29:27;;;;;;;48.07;25.07;;;1.70;99.90;;;;;;4912701;29;20236;-73
2022/12/04 10:31:56;;;;;;;52.10;26.87;;;1.70;99.90;;;;;;4912605;29;20251;-74
2022/12/04 10:34:26;;;;;;;46.83;26.13;;;1.80;99.90;;;;;;4912643;29;20213;-73
2022/12/04 10:36:55;;;;;;;52.37;26.67;;;1.70;99.90;;;;;;4912228;29;20223;-74
2022/12/04 10:39:25;;;;;;;48.10;25.97;;;1.70;99.90;;;;;;4912118;29;20217;-73
2022/12/04 10:41:59;;;;;;;48.03;26.23;;;1.80;99.90;;;;;;4912094;29;20229;-73
2022/12/04 10:44:26;;;;;;;54.33;26.70;;;1.80;99.90;;;;;;4912781;29;20197;-74
2022/12/04 10:46:56;;;;;;;46.87;25.63;;;1.80;99.90;;;;;;4912285;29;20209;-73
2022/12/04 10:49:26;;;;;;;45.73;25.43;;;1.80;99.90;;;;;;4908906;29;20334;-73
2022/12/04 10:51:53;;;;;;;49.97;26.13;;;1.80;99.90;;;;;;4912426;29;20236;-75
2022/12/04 10:54:26;;;;;;;54.50;27.37;;;1.80;99.90;;;;;;4908874;29;20898;-74
2022/12/04 10:56:55;;;;;;;48.73;26.27;;;1.80;99.90;;;;;;4912592;29;20208;-73
2022/12/04 10:59:23;;;;;;;50.60;25.87;;;1.90;99.90;;;;;;4912494;29;20252;-74
2022/12/04 11:01:52;;;;;;;46.47;25.80;;;1.90;99.90;;;;;;4902501;29;20229;-73
2022/12/04 11:04:25;;;;;;;49.07;25.53;;;1.90;99.90;;;;;;4907449;29;20208;-74
2022/12/04 11:07:02;;;;;;;49.03;25.50;;;1.90;99.90;;;;;;4912095;29;20953;-73
2022/12/04 11:09:32;;;;;;;51.03;26.23;;;2.00;99.90;;;;;;4912161;29;20294;-73
2022/12/04 11:12:08;;;;;;;48.43;26.73;;;1.90;99.90;;;;;;4912055;29;20216;-73
2022/12/04 11:14:35;;;;;;;48.40;26.00;;;1.90;99.90;;;;;;4911845;29;20322;-73
2022/12/04 11:17:04;;;;;;;49.10;25.97;;;1.90;99.90;;;;;;4911575;29;20219;-72
2022/12/04 11:19:35;;;;;;;53.07;26.50;;;1.90;99.90;;;;;;4911619;29;20302;-73
2022/12/04 11:22:10;;;;;;;50.07;26.73;;;2.00;99.90;;;;;;4911018;29;20243;-73
2022/12/04 11:24:41;;;;;;;53.43;26.70;;;2.00;99.90;;;;;;4911588;29;20201;-73
2022/12/04 11:27:19;;;;;;;53.00;26.27;;;2.10;99.90;;;;;;4911480;29;20236;-72
2022/12/04 11:29:47;;;;;;;49.83;26.30;;;2.00;99.90;;;;;;4910967;29;20830;-73
2022/12/04 11:32:21;;;;;;;47.03;26.20;;;2.00;99.90;;;;;;4911558;29;20209;-74
2022/12/04 11:34:50;;;;;;;49.97;26.97;;;2.00;99.90;;;;;;4912026;29;20667;-74
2022/12/04 11:37:20;;;;;;;53.80;27.20;;;2.00;99.90;;;;;;4911963;29;20219;-73
2022/12/04 11:39:49;;;;;;;52.07;26.20;;;2.00;99.90;;;;;;4911370;29;20695;-74
2022/12/04 11:42:18;;;;;;;51.23;26.27;;;2.00;99.90;;;;;;4910953;29;20237;-72
2022/12/04 11:44:53;;;;;;;51.40;27.83;;;2.00;99.90;;;;;;4910918;29;20228;-73
2022/12/04 11:47:22;;;;;;;53.97;26.60;;;2.00;99.90;;;;;;4911440;29;20212;-73
2022/12/04 11:50:00;;;;;;;55.37;26.97;;;2.00;99.90;;;;;;4907910;29;20217;-72
2022/12/04 11:52:40;;;;;;;45.27;24.33;;;2.00;99.90;;;;;;4893113;29;20566;-72
2022/12/04 11:55:15;;;;;;;53.30;26.07;;;2.00;99.90;;;;;;4892729;29;20663;-72
2022/12/04 11:57:47;;;;;;;50.60;25.83;;;2.00;99.90;;;;;;4892607;29;20827;-72
2022/12/04 12:00:16;;;;;;;46.37;25.43;;;2.00;99.90;;;;;;4904505;29;20744;-72
2022/12/04 12:03:11;;;;;;;47.30;25.33;;;2.00;99.90;;;;;;4911336;29;20232;-72
2022/12/04 12:05:58;;;;;;;49.17;24.93;;;2.00;99.90;;;;;;4909492;29;20292;-72
2022/12/04 12:08:39;;;;;;;47.73;24.67;;;2.00;99.90;;;;;;4908271;29;20255;-73
2022/12/04 12:11:14;;;;;;;46.67;24.37;;;2.00;99.90;;;;;;4910834;29;20209;-73
2022/12/04 12:13:50;;;;;;;51.80;26.30;;;2.00;99.90;;;;;;4910910;29;20287;-73
2022/12/04 12:16:25;;;;;;;45.47;24.93;;;2.00;99.90;;;;;;4900560;29;20815;-73
2022/12/04 12:19:07;;;;;;;46.13;23.50;;;2.00;99.90;;;;;;4911789;29;20318;-72
2022/12/04 12:21:44;;;;;;;44.17;23.50;;;2.00;99.90;;;;;;4911178;29;20231;-72
2022/12/04 12:24:23;;;;;;;49.90;25.13;;;2.00;99.90;;;;;;4910393;29;20236;-72
2022/12/04 12:27:01;;;;;;;42.23;23.63;;;2.00;99.90;;;;;;4910936;29;20205;-72
2022/12/04 12:29:52;;;;;;;45.67;25.30;;;2.00;99.90;;;;;;4910339;29;20236;-73
2022/12/04 12:32:38;;;;;;;47.30;25.73;;;2.00;99.90;;;;;;4910796;29;20253;-72
2022/12/04 12:35:14;;;;;;;44.93;24.70;;;2.00;99.90;;;;;;4910244;29;20197;-72
2022/12/04 12:37:47;;;;;;;41.93;23.33;;;2.00;99.90;;;;;;4910426;29;20214;-73
2022/12/04 12:40:28;;;;;;;44.27;24.67;;;2.00;99.90;;;;;;4910022;29;20295;-73
2022/12/04 12:43:00;;;;;;;44.73;23.83;;;2.00;99.90;;;;;;4909388;29;20335;-74
2022/12/04 12:45:32;;;;;;;40.63;23.67;;;2.00;99.90;;;;;;4910553;29;20237;-72
2022/12/04 12:48:06;;;;;;;41.20;23.73;;;2.00;99.90;;;;;;4910256;29;20668;-72
2022/12/04 12:50:43;;;;;;;40.97;23.37;;;2.00;99.90;;;;;;4910733;29;20201;-75
2022/12/04 12:53:15;;;;;;;43.30;23.40;;;2.10;99.90;;;;;;4910359;29;20291;-74
2022/12/04 12:55:47;;;;;;;45.40;24.83;;;2.00;99.90;;;;;;4909848;29;20556;-72
2022/12/04 12:58:21;;;;;;;45.80;23.43;;;2.00;99.90;;;;;;4910723;29;20637;-72
2022/12/04 13:00:51;;;;;;;46.17;24.63;;;2.00;99.90;;;;;;4910643;29;20398;-73
2022/12/04 13:03:35;;;;;;;40.00;22.87;;;2.00;99.90;;;;;;5123853;27;21056;-73
2022/12/04 13:06:07;;;;;;;45.07;23.90;;;2.00;99.90;;;;;;5123378;28;20281;-74